Bristolville, Ohio
Current Conditions -  °F | °C
As of 1:51 PM on Thursday 27 Nov 2014 (Local Time) from KYNG Reporting Station
Light Snow Light Snow  
Wind Chill: 21°   Ceiling: 1800
Heat Index: 31°   Visibility: 6mi
Dew Point: 25°   Wind: 13mph
Humidity: 79%   Direction: 300°WNW
Pressure: 30.08"   Gusts: NA
Location:  41.39°N, 80.87°W
Report Text: KYNG 271851Z 30011KT 6SM -SN FEW009 OVC018 M01/M04 A3008 RMK AO2 SLP198 P0000 T10061039
Loading
Personal Weather Stations






























Interactive Weather Map New forecast layout! Learn more

10-Day Weather Forecast

Advertisements
Track Severe Weather on mobile